createdAt,value
2022-11-16T04:51:15.545Z,99612.84
2022-11-16T04:54:19.416Z,99612.84
2022-11-16T04:57:22.078Z,99617.53
2022-11-16T05:00:25.568Z,99618.72
2022-11-16T05:03:28.021Z,99611.78
2022-11-16T05:06:31.085Z,99622.03
2022-11-16T05:09:33.746Z,99614.75
2022-11-16T05:12:36.697Z,99607.28
2022-11-16T05:15:40.338Z,99604.97
2022-11-16T05:18:43.252Z,99608.75
2022-11-16T05:21:47.421Z,99601.38
2022-11-16T05:24:50.289Z,99600.66
2022-11-16T05:27:53.798Z,99605.03
2022-11-16T05:30:56.469Z,99606.97
2022-11-16T05:33:58.945Z,99593.97
2022-11-16T05:37:02.341Z,99592.94
2022-11-16T05:40:05.576Z,99588.22
2022-11-16T05:43:09.133Z,99581.50
2022-11-16T05:46:12.197Z,99584.09
2022-11-16T05:49:16.125Z,99575.56
2022-11-16T05:52:19.359Z,99570.41
2022-11-16T05:55:21.965Z,99562.66
2022-11-16T05:58:24.344Z,99559.37
2022-11-16T06:01:27.053Z,99563.03
2022-11-16T06:04:29.829Z,99562.72
2022-11-16T06:07:34.156Z,99556.28
2022-11-16T06:10:37.066Z,99559.37
2022-11-16T06:13:40.213Z,99561.91
2022-11-16T06:16:43.131Z,99564.28
2022-11-16T06:19:46.004Z,99559.00
2022-11-16T06:22:48.889Z,99560.53
2022-11-16T06:25:55.481Z,99558.75
2022-11-16T06:28:58.836Z,99567.03
2022-11-16T06:32:01.246Z,99557.50
2022-11-16T06:35:04.494Z,99559.19
2022-11-16T06:38:09.004Z,99561.63
2022-11-16T06:41:11.655Z,99552.41
2022-11-16T06:44:14.593Z,99554.50
2022-11-16T06:47:17.831Z,99551.06
2022-11-16T06:50:20.864Z,99547.47
2022-11-16T06:53:28.936Z,99540.28
2022-11-16T06:56:34.964Z,99532.25
2022-11-16T06:59:37.569Z,99524.81
2022-11-16T07:02:40.521Z,99532.75
2022-11-16T07:05:43.540Z,99539.62
2022-11-16T07:08:46.197Z,99540.09
2022-11-16T07:11:50.014Z,99525.84
2022-11-16T07:14:53.229Z,99522.50
2022-11-16T07:17:56.944Z,99519.91
2022-11-16T07:21:14.936Z,99523.16
2022-11-16T07:24:18.617Z,99523.50
2022-11-16T07:27:22.347Z,99523.59
2022-11-16T07:30:25.955Z,99515.41
2022-11-16T07:33:29.445Z,99519.56
2022-11-16T07:36:34.969Z,99511.47
2022-11-16T07:39:37.654Z,99508.78
2022-11-16T07:42:43.561Z,99518.59
2022-11-16T07:45:48.395Z,99504.06
2022-11-16T07:48:51.084Z,99510.12
2022-11-16T07:51:55.782Z,99505.06
2022-11-16T07:55:01.603Z,99500.31
2022-11-16T07:58:04.970Z,99499.06
2022-11-16T08:01:13.299Z,99494.69
2022-11-16T08:04:17.537Z,99489.94
2022-11-16T08:07:20.283Z,99487.53
2022-11-16T08:10:23.841Z,99486.44
2022-11-16T08:13:26.647Z,99491.91
2022-11-16T08:16:29.374Z,99489.63
2022-11-16T08:19:32.768Z,99489.66
2022-11-16T08:22:36.352Z,99487.03
2022-11-16T08:25:39.183Z,99487.78
2022-11-16T08:28:43.519Z,99484.16
2022-11-16T08:31:46.280Z,99484.56
2022-11-16T08:34:49.016Z,99489.47
2022-11-16T08:37:51.533Z,99483.34
2022-11-16T08:40:56.028Z,99476.81
2022-11-16T08:44:00.145Z,99474.66
2022-11-16T08:47:03.569Z,99479.19
2022-11-16T08:50:06.577Z,99479.44
2022-11-16T08:53:10.635Z,99475.22
2022-11-16T08:56:13.637Z,99472.78
2022-11-16T08:59:17.324Z,99468.63
2022-11-16T09:02:25.312Z,99466.78
2022-11-16T09:05:28.394Z,99470.78
2022-11-16T09:08:31.551Z,99469.81
2022-11-16T09:11:34.295Z,99465.13
2022-11-16T09:14:36.526Z,99466.19
2022-11-16T09:17:39.160Z,99456.09
2022-11-16T09:20:45.499Z,99467.47
2022-11-16T09:23:48.884Z,99462.47
2022-11-16T09:26:51.194Z,99462.09
2022-11-16T09:29:53.742Z,99466.69
2022-11-16T09:33:00.324Z,99462.75
2022-11-16T09:36:08.583Z,99447.28
2022-11-16T09:39:30.534Z,99438.53
2022-11-16T09:42:54.000Z,99434.22
2022-11-16T09:46:26.832Z,99433.78
2022-11-16T09:49:43.748Z,99432.81
2022-11-16T09:52:51.462Z,99425.47
2022-11-16T09:56:08.727Z,99431.56
2022-11-16T09:59:25.314Z,99424.66
2022-11-16T10:02:34.526Z,99414.47
2022-11-16T10:06:38.772Z,99412.06
2022-11-16T10:09:41.801Z,99406.84
2022-11-16T10:13:19.798Z,99393.56
2022-11-16T10:16:44.786Z,99394.75
2022-11-16T10:20:02.697Z,99395.94
2022-11-16T10:23:53.800Z,99386.59
2022-11-16T10:27:34.509Z,99378.13
2022-11-16T10:30:46.522Z,99368.22
2022-11-16T10:33:54.366Z,99380.12
2022-11-16T10:37:07.697Z,99377.53
2022-11-16T10:40:20.692Z,99375.50
2022-11-16T10:43:30.151Z,99370.34
2022-11-16T10:46:40.241Z,99363.34
2022-11-16T10:50:11.861Z,99351.69
2022-11-16T10:53:25.103Z,99349.88
2022-11-16T10:56:37.206Z,99347.81
2022-11-16T11:00:00.257Z,99350.09
2022-11-16T11:03:03.143Z,99333.34
2022-11-16T11:06:11.285Z,99325.13
2022-11-16T11:09:27.474Z,99320.66
2022-11-16T11:12:39.361Z,99322.81
2022-11-16T11:15:42.846Z,99316.34
2022-11-16T11:18:45.458Z,99315.34
2022-11-16T11:21:48.764Z,99309.53
2022-11-16T11:24:52.243Z,99302.81
2022-11-16T11:28:28.850Z,99305.50
2022-11-16T11:31:47.097Z,99293.66
2022-11-16T11:34:53.215Z,99296.84
2022-11-16T11:37:59.596Z,99292.44
2022-11-16T11:41:06.737Z,99289.34
2022-11-16T11:44:17.105Z,99284.97
2022-11-16T11:51:13.414Z,99280.75
2022-11-16T11:54:35.721Z,99271.22
2022-11-16T11:57:42.513Z,99274.12
2022-11-16T12:00:56.991Z,99270.13
2022-11-16T12:04:18.399Z,99265.81
2022-11-16T12:07:43.917Z,99269.37
2022-11-16T12:10:52.842Z,99270.69
2022-11-16T12:14:11.487Z,99272.72
2022-11-16T12:17:26.724Z,99269.19
2022-11-16T12:20:57.798Z,99262.19
2022-11-16T12:24:20.829Z,99265.44
2022-11-16T12:27:51.275Z,99255.09
2022-11-16T12:31:19.604Z,99261.81
2022-11-16T12:34:35.562Z,99256.69
2022-11-16T12:37:41.137Z,99251.53
2022-11-16T12:40:58.891Z,99250.22
2022-11-16T12:44:08.683Z,99253.84
2022-11-16T12:47:37.688Z,99250.59
2022-11-16T12:50:57.656Z,99239.97
2022-11-16T12:54:33.945Z,99228.28
2022-11-16T12:58:14.394Z,99228.06
2022-11-16T13:01:37.396Z,99234.16
2022-11-16T13:04:57.544Z,99241.91
2022-11-16T13:08:10.717Z,99239.87
2022-11-16T13:11:25.285Z,99236.03
2022-11-16T13:14:46.840Z,99238.94
2022-11-16T13:17:57.766Z,99233.34
2022-11-16T13:21:21.461Z,99234.34
2022-11-16T13:24:32.950Z,99231.19
2022-11-16T13:27:38.119Z,99232.28
2022-11-16T13:31:01.897Z,99234.66
2022-11-16T13:34:15.725Z,99235.47
2022-11-16T13:37:46.132Z,99233.22
2022-11-16T13:40:48.553Z,99230.81
2022-11-16T13:43:51.104Z,99223.25
2022-11-16T13:47:05.808Z,99223.44
2022-11-16T13:50:18.362Z,99225.13
2022-11-16T13:54:42.670Z,99223.97
2022-11-16T13:56:58.763Z,99226.91
2022-11-16T14:00:00.997Z,99221.13
2022-11-16T14:03:15.438Z,99221.88
2022-11-16T14:06:24.045Z,99216.34
2022-11-16T14:09:48.788Z,99215.03
2022-11-16T14:12:53.501Z,99208.22
2022-11-16T14:16:14.771Z,99209.53
2022-11-16T14:19:49.094Z,99203.19
2022-11-16T14:22:56.805Z,99202.50
2022-11-16T14:26:12.853Z,99206.81
2022-11-16T14:29:24.391Z,99199.81
2022-11-16T14:32:33.173Z,99193.56
2022-11-16T14:35:40.078Z,99202.25
2022-11-16T14:38:43.561Z,99199.44
2022-11-16T14:41:47.160Z,99198.69
2022-11-16T14:44:50.414Z,99198.13
2022-11-16T14:47:58.983Z,99195.44
2022-11-16T14:51:13.413Z,99189.81
2022-11-16T14:54:33.924Z,99187.28
2022-11-16T14:57:36.479Z,99188.44
2022-11-16T15:00:38.846Z,99179.75
2022-11-16T15:03:54.977Z,99182.66
2022-11-16T15:07:03.248Z,99176.66
2022-11-16T15:10:14.756Z,99172.84
2022-11-16T15:13:23.037Z,99169.66
2022-11-16T15:16:26.086Z,99169.38
2022-11-16T15:19:30.269Z,99173.66
2022-11-16T15:22:40.490Z,99173.97
2022-11-16T15:25:54.545Z,99174.88
2022-11-16T15:28:57.302Z,99163.22
2022-11-16T15:31:59.734Z,99166.75
2022-11-16T15:35:05.364Z,99163.03
2022-11-16T15:38:20.154Z,99165.75
2022-11-16T15:41:24.595Z,99167.34
2022-11-16T15:44:28.129Z,99165.66
2022-11-16T15:47:30.652Z,99159.22
2022-11-16T15:50:33.156Z,99162.03
2022-11-16T15:53:44.336Z,99162.75
2022-11-16T15:56:47.431Z,99165.84
2022-11-16T15:59:54.657Z,99162.28
2022-11-16T16:03:05.586Z,99152.50
2022-11-16T16:06:15.468Z,99157.63
2022-11-16T16:09:22.745Z,99153.22
2022-11-16T16:12:26.764Z,99154.75
2022-11-16T16:15:33.975Z,99153.22
2022-11-16T16:18:42.968Z,99157.63
2022-11-16T16:21:46.833Z,99150.72
2022-11-16T16:24:49.410Z,99144.66
2022-11-16T16:27:51.857Z,99154.44
2022-11-16T16:30:54.501Z,99153.72
2022-11-16T16:33:56.925Z,99156.59
2022-11-16T16:36:59.436Z,99154.34
2022-11-16T16:40:02.061Z,99146.53
2022-11-16T16:43:04.681Z,99150.91
2022-11-16T16:46:07.114Z,99151.28
